Главная страница
METAR-TAF:

METAR-TAF

Аэропорты :

Тунис, Тунис

Тунис-Карфаген

широта: 36-50N, долгота: 010-14E, высота над уровнем моря: 3 м

Текущие метеонаблюдения

Эта сводка был подготовлена 50 минут назад, в 01:30 UTC
Ветер 13 Узел от западный с порывами до 23 Узел, изменяющийся между юго-западный и западно-северо-западный
Температура 15°C
Влажность 72%
Давление 1021 hPa
Видимость 10 км и более
небольшая облачность на высоте 2600 фута

METAR: DTTA 230130Z 26013G23KT 230V290 9999 FEW026 15/10 Q1021 NOSIG

Время: 03:20 (02:20 UTC)

Прогноз

Эта сводка был подготовлена 3 часа и 20 минут назад, в 23:00 UTC
Прогноз действительный с 23-го 00 UTC до 23-го 24 UTC
Ветер 20 Узел от западно-северо-западный с порывами до 37 Узел
Видимость 10 км и более
небольшая облачность на высоте 2600 фута
изменения
С 23-го 17 UTC до 23-го 19 UTC
Ветер 15 Узел от западно-северо-западный

TAF: DTTA 222300Z 2300/2324 30020G37KT 9999 FEW026 BECMG 2317/2319 30015KT

Метеонаблюдения и прогнозы для более 4000 аэропортов (сводки METAR и TAF).

Имеющиеся станции представлены на карте желтыми и красными точками.

Чтобы увидеть название станции, наведите на нее мышь.

Затем щелкните, чтобы увидеть метеонаблюдения и метеопрогнозы.

Управление картой: чтобы увеличить масштаб, щелкните зеленые кнопки с черным крестиком; чтобы уменьшить масштаб, щелкните зеленую кнопку с тире; для просмотра соседних карт щелкайте зеленые стрелки.


METAR-TAF: